createdAt,value
2018-07-21T00:01:22.427Z,99980.98
2018-07-21T00:06:19.948Z,99981.03
2018-07-21T00:11:25.631Z,99986.14
2018-07-21T00:16:23.352Z,99982.93
2018-07-21T00:21:20.935Z,99970.67
2018-07-21T00:26:18.439Z,99957.32
2018-07-21T00:31:15.976Z,99954.08
2018-07-21T00:36:13.485Z,99954.38
2018-07-21T00:41:25.309Z,99948.28
2018-07-21T00:46:22.962Z,99952.41
2018-07-21T00:51:20.552Z,99947.36
2018-07-21T00:56:18.064Z,99947.72
2018-07-21T01:01:15.611Z,99950.02
2018-07-21T01:06:13.144Z,99946.36
2018-07-21T01:11:24.271Z,99944.83
2018-07-21T01:16:22.320Z,99943.69
2018-07-21T01:21:19.852Z,99941.21
2018-07-21T01:26:17.447Z,99942.79
2018-07-21T01:31:14.975Z,99917.67
2018-07-21T01:36:12.495Z,99916.78
2018-07-21T01:41:10.006Z,99912.81
2018-07-21T01:46:07.543Z,99919.00
2018-07-21T01:51:05.059Z,99918.70
2018-07-21T01:56:02.604Z,99908.48
2018-07-21T02:01:00.284Z,99906.29
2018-07-21T02:05:57.806Z,99903.05
2018-07-21T02:10:58.028Z,99902.21
2018-07-21T02:15:55.667Z,99902.48
2018-07-21T02:20:53.167Z,99907.79
2018-07-21T02:25:50.680Z,99904.26
2018-07-21T02:30:48.209Z,99902.66
2018-07-21T02:35:45.725Z,99898.89
2018-07-21T02:40:43.224Z,99903.69
2018-07-21T02:45:40.771Z,99900.48
2018-07-21T02:50:38.259Z,99899.70
2018-07-21T02:55:35.788Z,99901.03
2018-07-21T03:00:33.349Z,99904.16
2018-07-21T03:05:30.916Z,99910.30
2018-07-21T03:10:28.408Z,99909.02
2018-07-21T03:15:26.163Z,99904.88
2018-07-21T03:20:23.697Z,99910.00
2018-07-21T03:25:21.219Z,99907.33
2018-07-21T03:30:19.155Z,99904.90
2018-07-21T03:35:16.663Z,99911.83
2018-07-21T03:40:14.187Z,99912.67
2018-07-21T03:45:11.735Z,99907.36
2018-07-21T03:50:09.230Z,99912.42
2018-07-21T03:55:06.820Z,99905.73
2018-07-21T04:00:04.862Z,99904.61
2018-07-21T04:05:02.377Z,99909.72
2018-07-21T04:09:59.899Z,99904.89
2018-07-21T04:14:57.476Z,99907.83
2018-07-21T04:19:55.863Z,99905.44
2018-07-21T04:24:53.648Z,99907.05
2018-07-21T04:29:51.740Z,99901.71
2018-07-21T04:34:49.250Z,99907.08
2018-07-21T04:39:46.817Z,99910.31
2018-07-21T04:44:44.360Z,99906.77
2018-07-21T04:49:41.883Z,99908.87
2018-07-21T04:54:39.413Z,99915.81
2018-07-21T04:59:36.999Z,99920.61
2018-07-21T05:04:36.480Z,99929.67
2018-07-21T05:09:34.189Z,99937.16
2018-07-21T05:14:31.794Z,99936.95
2018-07-21T05:19:29.343Z,99943.98
2018-07-21T05:24:27.065Z,99931.68
2018-07-21T05:29:24.707Z,99931.73
2018-07-21T05:34:22.215Z,99926.86
2018-07-21T05:39:19.768Z,99941.23
2018-07-21T05:44:17.317Z,99938.79
2018-07-21T05:49:14.848Z,99931.50
2018-07-21T05:54:12.373Z,99940.55
2018-07-21T05:59:09.932Z,99942.05
2018-07-21T06:04:07.429Z,99935.25
2018-07-21T06:09:06.971Z,99941.78
2018-07-21T06:14:04.522Z,99952.36
2018-07-21T06:19:02.043Z,99957.68
2018-07-21T06:23:59.549Z,99958.06
2018-07-21T06:28:57.056Z,99964.41
2018-07-21T06:33:54.575Z,99972.11
2018-07-21T06:38:52.167Z,99973.95
2018-07-21T06:43:49.720Z,99979.32
2018-07-21T06:48:47.224Z,99992.33
2018-07-21T06:53:44.782Z,99991.89
2018-07-21T06:58:42.350Z,100007.81
2018-07-21T07:03:39.901Z,100018.47
2018-07-21T07:08:37.418Z,100013.45
2018-07-21T07:13:34.951Z,100026.84
2018-07-21T07:18:32.498Z,100033.64
2018-07-21T07:23:30.032Z,100031.69
2018-07-21T07:28:33.071Z,100048.90
2018-07-21T07:33:36.937Z,100054.02
2018-07-21T07:38:39.194Z,100049.75
2018-07-21T07:43:45.752Z,100054.28
2018-07-21T07:48:49.805Z,100058.00
2018-07-21T07:53:50.160Z,100056.69
2018-07-21T07:58:47.826Z,100051.63
2018-07-21T08:03:45.380Z,100040.94
2018-07-21T08:08:42.916Z,100036.66
2018-07-21T08:13:40.478Z,100041.09
2018-07-21T08:18:38.069Z,100039.58
2018-07-21T08:23:35.624Z,100042.25
2018-07-21T08:28:33.190Z,100032.02
2018-07-21T08:33:30.811Z,100039.36
2018-07-21T08:38:28.720Z,100036.31
2018-07-21T08:43:26.312Z,100035.69
2018-07-21T08:48:23.880Z,100033.31
2018-07-21T08:53:22.996Z,100035.44
2018-07-21T08:58:21.162Z,100042.61
2018-07-21T09:03:18.695Z,100039.02
2018-07-21T09:08:16.240Z,100028.45
2018-07-21T09:13:13.901Z,100015.62
2018-07-21T09:18:11.389Z,100016.03
2018-07-21T09:23:08.944Z,100012.78
2018-07-21T09:28:06.549Z,100012.78
2018-07-21T09:33:04.727Z,100013.34
2018-07-21T09:38:02.283Z,100013.23
2018-07-21T09:42:59.837Z,100004.29
2018-07-21T09:47:57.380Z,100012.02
2018-07-21T09:52:55.000Z,100012.58
2018-07-21T09:57:52.582Z,100021.52
2018-07-21T10:02:50.100Z,100027.28
2018-07-21T10:07:47.643Z,100031.84
2018-07-21T10:12:45.182Z,100044.00
2018-07-21T10:17:42.726Z,100044.41
2018-07-21T10:22:40.238Z,100048.30
2018-07-21T10:27:43.296Z,100048.11
2018-07-21T10:32:40.870Z,100041.80
2018-07-21T10:37:38.389Z,100047.55
2018-07-21T10:42:35.928Z,100054.77
2018-07-21T10:47:33.398Z,100056.23
2018-07-21T10:52:30.934Z,100055.16
2018-07-21T10:57:28.506Z,100057.23
2018-07-21T11:02:26.009Z,100044.63
2018-07-21T11:07:23.538Z,100040.56
2018-07-21T11:12:21.077Z,100040.77
2018-07-21T11:17:18.595Z,100036.59
2018-07-21T11:22:16.111Z,100034.08
2018-07-21T11:27:13.931Z,100025.73
2018-07-21T11:32:11.479Z,100030.64
2018-07-21T11:37:08.992Z,100034.16
2018-07-21T11:42:07.924Z,100038.17
2018-07-21T11:47:05.449Z,100034.42
2018-07-21T11:52:03.033Z,100046.94
2018-07-21T11:57:01.898Z,100041.17
2018-07-21T12:01:59.449Z,100050.61
2018-07-21T12:06:57.024Z,100051.98
2018-07-21T12:11:56.127Z,100056.05
2018-07-21T12:16:53.660Z,100050.77
2018-07-21T12:21:57.933Z,100055.97
2018-07-21T12:26:56.001Z,100054.24
2018-07-21T12:31:53.519Z,100042.55
2018-07-21T12:36:51.022Z,100039.49
2018-07-21T12:41:49.947Z,100037.58
2018-07-21T12:46:47.510Z,100034.44
2018-07-21T12:51:45.029Z,100036.98
2018-07-21T12:56:42.564Z,100041.42
2018-07-21T13:01:40.215Z,100039.81
2018-07-21T13:06:37.763Z,100029.31
2018-07-21T13:11:39.773Z,100036.65
2018-07-21T13:16:37.427Z,100039.23
2018-07-21T13:21:35.058Z,100042.84
2018-07-21T13:26:33.067Z,100041.98
2018-07-21T13:31:30.598Z,100039.81
2018-07-21T13:36:28.978Z,100029.28
2018-07-21T13:41:33.553Z,100030.03
2018-07-21T13:46:31.123Z,100029.56
2018-07-21T13:51:29.713Z,100017.70
2018-07-21T13:56:28.096Z,100015.52
2018-07-21T14:01:25.674Z,100014.80
2018-07-21T14:06:23.213Z,100016.20
2018-07-21T14:11:33.341Z,100018.77
2018-07-21T14:16:31.073Z,100016.02
2018-07-21T14:21:28.676Z,100016.41
2018-07-21T14:26:26.238Z,100013.67
2018-07-21T14:31:23.796Z,100008.23
2018-07-21T14:36:21.523Z,100013.09
2018-07-21T14:41:27.024Z,100017.80
2018-07-21T14:46:24.699Z,100017.05
2018-07-21T14:51:22.212Z,100016.19
2018-07-21T14:56:19.753Z,100021.52
2018-07-21T15:01:17.372Z,100017.80
2018-07-21T15:06:14.999Z,100018.59
2018-07-21T15:11:21.887Z,100015.89
2018-07-21T15:16:19.781Z,100014.54
2018-07-21T15:21:17.328Z,100011.33
2018-07-21T15:26:14.860Z,100009.01
2018-07-21T15:31:12.542Z,99997.52
2018-07-21T15:36:10.059Z,100000.98
2018-07-21T15:41:07.574Z,100002.81
2018-07-21T15:46:05.538Z,100004.06
2018-07-21T15:51:03.101Z,100002.20
2018-07-21T15:56:00.648Z,99995.77
2018-07-21T16:00:58.224Z,100004.00
2018-07-21T16:05:55.765Z,100002.27
2018-07-21T16:10:53.338Z,100009.28
2018-07-21T16:15:50.889Z,100005.77
2018-07-21T16:20:48.443Z,99999.51
2018-07-21T16:25:45.983Z,100003.77
2018-07-21T16:30:43.512Z,100009.53
2018-07-21T16:35:41.042Z,100008.17
2018-07-21T16:40:38.623Z,100013.59
2018-07-21T16:45:36.196Z,100010.34
2018-07-21T16:50:33.724Z,100003.88
2018-07-21T16:55:31.236Z,100007.66
2018-07-21T17:00:28.843Z,100005.51
2018-07-21T17:05:26.332Z,100003.20
2018-07-21T17:10:23.833Z,100001.62
2018-07-21T17:15:21.346Z,99999.29
2018-07-21T17:20:18.848Z,100001.12
2018-07-21T17:25:16.345Z,99998.38
2018-07-21T17:30:18.434Z,100003.16
2018-07-21T17:35:16.727Z,100010.86
2018-07-21T17:40:14.977Z,100003.64
2018-07-21T17:45:13.366Z,100000.95
2018-07-21T17:50:11.870Z,100002.45
2018-07-21T17:55:10.067Z,100000.33
2018-07-21T18:00:08.417Z,99990.81
2018-07-21T18:05:06.687Z,99987.50
2018-07-21T18:10:05.344Z,99985.15
2018-07-21T18:15:04.448Z,99988.94
2018-07-21T18:20:04.814Z,99990.86
2018-07-21T18:25:06.779Z,99994.06
2018-07-21T18:30:07.016Z,99996.35
2018-07-21T18:35:08.761Z,99991.58
2018-07-21T18:40:11.561Z,100001.91
2018-07-21T18:45:12.973Z,100004.84
2018-07-21T18:50:12.372Z,100009.16
2018-07-21T18:55:13.880Z,100005.81
2018-07-21T19:00:16.042Z,99999.35
2018-07-21T19:05:17.523Z,100004.23
2018-07-21T19:10:19.217Z,100004.62
2018-07-21T19:15:24.995Z,100003.11
2018-07-21T19:20:31.045Z,100008.00
2018-07-21T19:25:37.385Z,100012.27
2018-07-21T19:30:35.828Z,100018.42
2018-07-21T19:35:34.722Z,100025.59
2018-07-21T19:40:33.374Z,100026.00
2018-07-21T19:45:31.638Z,100031.92
2018-07-21T19:50:30.310Z,100043.92
2018-07-21T19:55:28.564Z,100048.75
2018-07-21T20:00:27.070Z,100052.25
2018-07-21T20:05:25.314Z,100054.67
2018-07-21T20:10:23.400Z,100062.41
2018-07-21T20:15:21.422Z,100065.88
2018-07-21T20:20:19.496Z,100070.69
2018-07-21T20:25:17.258Z,100070.15
2018-07-21T20:30:15.865Z,100071.48
2018-07-21T20:35:13.861Z,100071.67
2018-07-21T20:40:11.996Z,100076.83
2018-07-21T20:45:09.975Z,100079.27
2018-07-21T20:50:08.092Z,100078.52
2018-07-21T20:55:05.995Z,100080.44
2018-07-21T21:00:04.590Z,100092.00
2018-07-21T21:05:02.975Z,100089.73
2018-07-21T21:10:01.030Z,100101.77
2018-07-21T21:14:59.160Z,100094.41
2018-07-21T21:19:57.405Z,100101.84
2018-07-21T21:24:55.360Z,100097.66
2018-07-21T21:29:53.445Z,100096.08
2018-07-21T21:34:51.561Z,100088.09
2018-07-21T21:39:49.859Z,100083.86
2018-07-21T21:44:48.248Z,100089.96
2018-07-21T21:49:46.409Z,100078.80
2018-07-21T21:54:44.688Z,100091.62
2018-07-21T21:59:43.021Z,100087.13
2018-07-21T22:05:44.120Z,100087.92
2018-07-21T22:10:42.253Z,100101.81
2018-07-21T22:15:40.501Z,100101.05
2018-07-21T22:20:38.619Z,100093.02
2018-07-21T22:25:37.200Z,100100.77
2018-07-21T22:30:35.686Z,100093.82
2018-07-21T22:35:33.211Z,100096.42
2018-07-21T22:40:30.728Z,100104.64
2018-07-21T22:45:28.762Z,100114.75
2018-07-21T22:50:26.288Z,100114.44
2018-07-21T22:55:23.754Z,100118.70
2018-07-21T23:00:21.284Z,100116.59
2018-07-21T23:05:18.770Z,100125.03
2018-07-21T23:10:16.276Z,100125.98
2018-07-21T23:15:13.791Z,100118.58
2018-07-21T23:20:11.291Z,100121.02
2018-07-21T23:25:08.829Z,100125.41
2018-07-21T23:30:06.333Z,100116.74
2018-07-21T23:35:03.981Z,100122.18
2018-07-21T23:40:01.475Z,100121.28
2018-07-21T23:44:58.945Z,100126.73
2018-07-21T23:49:56.432Z,100134.83
2018-07-21T23:54:53.953Z,100135.45
2018-07-21T23:59:51.470Z,100127.98
